Time;durP1;ratioP1;P1;durP2;ratioP2;P2;SDS_P1;SDS_P2;PMS_P1;PMS_P2;Temp;Humidity;BMP_temperature;BMP_pressure;BME280_temperature;BME280_humidity;BME280_pressure;Samples;Min_cycle;Max_cycle;Signal;HPM_P1;HPM_P2
2021/09/13 00:02:28;;;;;;;5.00;2.28;;;;;;;23.32;57.09;99744.94;5076508;28;20114;-68
2021/09/13 00:04:56;;;;;;;5.82;2.05;;;;;;;23.30;57.45;99746.50;5071363;28;20083;-71
2021/09/13 00:07:23;;;;;;;4.90;1.90;;;;;;;23.31;57.07;99748.16;5079001;28;20101;-64
2021/09/13 00:09:50;;;;;;;4.13;2.03;;;;;;;23.25;57.17;99739.13;5091714;28;20138;-65
2021/09/13 00:12:17;;;;;;;4.95;2.50;;;;;;;23.34;57.46;99753.88;5081457;28;20135;-65
2021/09/13 00:14:44;;;;;;;4.25;2.20;;;;;;;23.34;57.54;99753.88;5087035;28;20070;-68
2021/09/13 00:17:11;;;;;;;6.53;1.88;;;;;;;23.28;57.42;99749.75;5081027;28;20135;-68
2021/09/13 00:19:38;;;;;;;6.47;1.92;;;;;;;23.29;57.37;99745.69;5077095;28;20123;-67
2021/09/13 00:22:06;;;;;;;4.35;2.03;;;;;;;23.26;57.57;99722.88;5078635;28;20036;-66
2021/09/13 00:24:33;;;;;;;6.00;2.08;;;;;;;23.31;57.66;99734.72;5077498;28;20104;-68
2021/09/13 00:27:00;;;;;;;4.13;2.42;;;;;;;23.30;57.27;99730.25;5081894;28;20554;-67
2021/09/13 00:29:26;;;;;;;4.57;1.90;;;;;;;23.23;57.62;99717.94;5075708;28;20448;-67
2021/09/13 00:31:53;;;;;;;6.35;2.20;;;;;;;23.31;57.61;99737.56;5082424;28;20157;-71
2021/09/13 00:34:20;;;;;;;4.30;2.05;;;;;;;23.29;57.62;99734.31;5079980;28;20090;-73
2021/09/13 00:36:47;;;;;;;2.50;1.77;;;;;;;23.25;57.43;99739.13;5073071;28;20045;-73
2021/09/13 00:39:14;;;;;;;7.35;2.20;;;;;;;23.23;57.70;99737.88;5083604;28;20124;-72
2021/09/13 00:41:41;;;;;;;3.95;1.95;;;;;;;23.24;57.91;99726.06;5076726;28;20514;-68
2021/09/13 00:44:07;;;;;;;3.47;2.00;;;;;;;23.20;58.05;99736.59;5078053;28;20131;-72
2021/09/13 00:46:34;;;;;;;3.88;1.70;;;;;;;23.11;58.07;99731.22;5084930;28;20480;-70
2021/09/13 00:49:01;;;;;;;5.63;2.30;;;;;;;23.03;58.89;99731.50;5075578;28;20048;-72
2021/09/13 00:51:28;;;;;;;4.65;2.22;;;;;;;22.93;58.84;99728.09;5082811;28;20049;-73
2021/09/13 00:53:55;;;;;;;7.03;2.83;;;;;;;23.06;58.56;99733.56;5081320;28;20132;-69
2021/09/13 00:56:22;;;;;;;6.07;2.25;;;;;;;22.91;58.55;99712.59;5078798;28;20048;-75
2021/09/13 00:58:52;;;;;;;9.02;2.65;;;;;;;23.02;59.00;99719.28;5085192;28;20135;-68
2021/09/13 01:01:19;;;;;;;5.53;2.45;;;;;;;23.22;58.62;99733.41;5083830;28;20040;-69
2021/09/13 01:03:46;;;;;;;5.25;2.10;;;;;;;23.22;58.41;99731.34;5085028;28;20089;-72
2021/09/13 01:06:15;;;;;;;3.63;2.28;;;;;;;23.03;59.38;99720.91;5094005;28;20097;-72
2021/09/13 01:08:43;;;;;;;4.50;2.40;;;;;;;22.92;59.70;99737.84;5091793;28;20487;-71
2021/09/13 01:11:10;;;;;;;6.13;2.50;;;;;;;22.86;59.70;99727.13;5081076;28;20091;-68
2021/09/13 01:13:37;;;;;;;3.72;2.25;;;;;;;22.81;59.63;99733.19;5085854;28;20132;-72
2021/09/13 01:16:05;;;;;;;4.63;2.45;;;;;;;22.73;60.12;99706.59;5084174;28;20121;-71
2021/09/13 01:18:33;;;;;;;4.53;2.40;;;;;;;22.88;59.59;99722.72;5085247;28;20060;-71
2021/09/13 01:21:00;;;;;;;5.55;2.30;;;;;;;23.02;59.57;99718.47;5074900;28;20460;-65
2021/09/13 01:23:29;;;;;;;3.45;1.92;;;;;;;23.09;59.34;99710.03;5077366;28;20551;-64
2021/09/13 01:25:56;;;;;;;5.85;2.25;;;;;;;23.09;58.96;99724.25;5080276;28;20119;-64
2021/09/13 01:28:23;;;;;;;5.93;2.10;;;;;;;22.90;59.32;99693.84;5087089;28;20046;-64
2021/09/13 01:30:52;;;;;;;4.55;1.98;;;;;;;22.97;59.46;99710.25;5081493;28;20440;-64
2021/09/13 01:33:21;;;;;;;2.97;1.90;;;;;;;23.03;59.37;99714.41;5073156;28;20131;-64
2021/09/13 01:35:50;;;;;;;4.22;2.03;;;;;;;22.91;59.86;99707.72;5086848;28;20202;-64
2021/09/13 01:38:20;;;;;;;5.47;2.10;;;;;;;22.90;59.80;99713.78;5080211;28;20503;-63
2021/09/13 01:40:49;;;;;;;4.63;2.00;;;;;;;23.02;59.37;99713.59;5088267;28;20086;-63
2021/09/13 01:43:16;;;;;;;4.03;1.80;;;;;;;22.87;59.81;99709.69;5085495;28;20139;-62
2021/09/13 01:45:43;;;;;;;4.13;1.83;;;;;;;22.83;59.82;99711.63;5072419;28;20068;-62
2021/09/13 01:48:10;;;;;;;7.72;1.80;;;;;;;22.76;59.94;99713.56;5073812;28;20477;-66
2021/09/13 01:50:37;;;;;;;4.68;2.05;;;;;;;22.69;60.22;99723.63;5073802;28;20048;-64
2021/09/13 01:53:03;;;;;;;3.88;2.17;;;;;;;22.71;60.08;99729.78;5086114;28;20132;-63
2021/09/13 01:55:30;;;;;;;2.97;1.92;;;;;;;22.63;60.28;99722.34;5086655;28;20083;-62
2021/09/13 01:57:57;;;;;;;3.63;2.10;;;;;;;22.63;60.56;99715.81;5085567;28;20076;-61
2021/09/13 02:00:24;;;;;;;3.92;2.15;;;;;;;22.73;60.45;99729.38;5083320;28;20140;-64
2021/09/13 02:02:51;;;;;;;5.55;2.17;;;;;;;22.68;59.96;99729.72;5076028;28;20124;-66
2021/09/13 02:05:18;;;;;;;7.18;2.22;;;;;;;22.56;60.58;99710.00;5074054;28;20048;-63
2021/09/13 02:07:45;;;;;;;7.45;1.83;;;;;;;22.69;60.43;99723.63;5075603;28;20147;-63
2021/09/13 02:10:12;;;;;;;8.90;2.40;;;;;;;22.64;60.49;99714.63;5082962;28;20055;-63
2021/09/13 02:12:39;;;;;;;3.60;2.30;;;;;;;22.52;60.27;99689.22;5083104;28;20123;-63
2021/09/13 02:15:06;;;;;;;2.72;1.88;;;;;;;22.67;60.03;99713.84;5086737;28;20075;-63
2021/09/13 02:17:33;;;;;;;4.60;1.98;;;;;;;22.77;60.02;99721.75;5083469;28;20467;-64
2021/09/13 02:20:00;;;;;;;4.72;2.08;;;;;;;22.80;59.99;99715.25;5087376;28;20620;-64
2021/09/13 02:22:27;;;;;;;5.93;2.00;;;;;;;22.71;59.66;99698.47;5084962;28;20131;-65
2021/09/13 02:24:53;;;;;;;5.30;2.30;;;;;;;22.76;59.65;99702.19;5077502;28;20531;-70
2021/09/13 02:27:20;;;;;;;5.70;2.60;;;;;;;22.73;59.59;99709.47;5079141;28;20082;-69
2021/09/13 02:29:47;;;;;;;3.95;2.30;;;;;;;22.64;60.04;99698.38;5085148;28;20170;-68
2021/09/13 02:32:14;;;;;;;6.53;2.13;;;;;;;22.64;59.72;99698.38;5085367;28;20145;-67
2021/09/13 02:34:41;;;;;;;5.60;2.40;;;;;;;22.53;59.77;99693.69;5083684;28;20115;-68
2021/09/13 02:37:08;;;;;;;4.28;2.10;;;;;;;22.54;59.98;99693.31;5084267;28;20127;-66
2021/09/13 02:39:34;;;;;;;7.07;2.20;;;;;;;22.47;60.15;99694.03;5085799;28;20075;-70
2021/09/13 02:42:01;;;;;;;4.40;2.33;;;;;;;22.42;60.35;99691.50;5074328;28;20119;-73
2021/09/13 02:44:28;;;;;;;4.80;2.28;;;;;;;22.38;60.23;99689.81;5081708;28;20126;-72
2021/09/13 02:46:55;;;;;;;4.30;2.65;;;;;;;22.43;60.48;99698.03;5082534;28;20075;-72
2021/09/13 02:49:22;;;;;;;6.43;1.98;;;;;;;22.45;60.18;99710.66;5089923;28;20079;-77
2021/09/13 02:51:48;;;;;;;5.63;2.33;;;;;;;22.38;60.38;99699.16;5089950;28;20071;-75
2021/09/13 02:54:15;;;;;;;6.68;1.98;;;;;;;22.43;60.76;99701.69;5079913;28;20540;-74
2021/09/13 02:56:42;;;;;;;5.22;2.30;;;;;;;22.45;60.62;99701.28;5073235;28;20044;-75
2021/09/13 02:59:09;;;;;;;4.32;2.20;;;;;;;22.36;60.51;99715.81;5073030;28;20087;-68
2021/09/13 03:01:36;;;;;;;5.10;2.35;;;;;;;22.38;60.92;99702.00;5073082;28;20162;-78
2021/09/13 03:04:03;;;;;;;3.95;2.20;;;;;;;22.34;61.00;99701.13;5073467;28;20040;-76
2021/09/13 03:06:30;;;;;;;4.53;2.10;;;;;;;22.24;61.06;99673.31;5076380;28;20123;-73
2021/09/13 03:09:00;;;;;;;5.03;2.13;;;;;;;22.22;60.95;99670.03;5082525;28;20758;-71
2021/09/13 03:11:27;;;;;;;4.72;2.58;;;;;;;22.28;61.11;99684.75;5085480;28;20052;-70
2021/09/13 03:13:55;;;;;;;3.80;2.55;;;;;;;22.30;60.80;99688.06;5084641;28;20191;-70
2021/09/13 03:16:21;;;;;;;3.95;1.88;;;;;;;22.27;61.07;99686.78;5083174;28;20041;-73
2021/09/13 03:18:48;;;;;;;5.07;1.95;;;;;;;22.23;60.81;99680.22;5081152;28;20039;-73
2021/09/13 03:21:15;;;;;;;4.72;2.60;;;;;;;22.23;61.01;99683.06;5080704;28;20078;-73
2021/09/13 03:23:42;;;;;;;5.03;2.63;;;;;;;22.19;60.95;99670.81;5074296;28;20120;-75
2021/09/13 03:26:09;;;;;;;4.95;2.40;;;;;;;22.28;60.80;99679.88;5078553;28;20201;-74
2021/09/13 03:28:36;;;;;;;3.25;1.83;;;;;;;22.11;60.91;99657.63;5077808;28;20091;-74
2021/09/13 03:31:04;;;;;;;4.72;2.67;;;;;;;22.32;60.78;99689.28;5078122;28;20075;-77
2021/09/13 03:33:32;;;;;;;5.80;2.33;;;;;;;22.15;61.02;99678.44;5076694;28;20048;-77
2021/09/13 03:35:59;;;;;;;3.58;2.30;;;;;;;22.21;61.12;99697.66;5101920;28;20040;-78
2021/09/13 03:38:26;;;;;;;8.55;2.97;;;;;;;22.24;60.98;99707.44;5111992;28;20055;-77
2021/09/13 03:40:53;;;;;;;6.93;2.58;;;;;;;22.00;60.89;99663.97;5099166;28;20051;-77
2021/09/13 03:43:20;;;;;;;5.80;2.92;;;;;;;22.30;60.64;99711.63;5095012;28;20075;-76
2021/09/13 03:45:47;;;;;;;13.35;3.03;;;;;;;22.20;60.98;99712.25;5085714;28;20123;-76
2021/09/13 03:48:14;;;;;;;5.55;2.50;;;;;;;22.06;61.54;99707.13;5076448;28;20153;-75
2021/09/13 03:50:41;;;;;;;6.65;3.85;;;;;;;22.18;61.24;99720.34;5071686;28;20113;-76
2021/09/13 03:53:08;;;;;;;7.20;2.67;;;;;;;22.30;61.30;99725.84;5071354;28;20072;-75
2021/09/13 03:55:36;;;;;;;9.13;3.28;;;;;;;22.39;61.06;99723.56;5073171;28;20177;-73
2021/09/13 03:58:04;;;;;;;8.05;3.35;;;;;;;22.36;60.87;99721.50;5074196;28;20465;-75
2021/09/13 04:00:31;;;;;;;5.43;2.75;;;;;;;22.34;61.04;99732.41;5080537;28;20052;-76
2021/09/13 04:02:59;;;;;;;7.40;2.50;;;;;;;22.37;61.12;99731.66;5080974;28;20086;-68
2021/09/13 04:05:26;;;;;;;7.15;3.15;;;;;;;22.36;61.21;99727.19;5087965;28;20044;-69
2021/09/13 04:10:39;;;;;;;7.00;3.30;;;;;;;22.41;60.66;99701.25;5075595;28;20127;-74
2021/09/13 04:13:06;;;;;;;7.38;2.78;;;;;;;22.46;60.66;99697.25;5079751;28;20149;-68
2021/09/13 04:15:35;;;;;;;5.85;2.85;;;;;;;22.35;60.69;99687.72;5078136;28;20041;-68
2021/09/13 04:18:02;;;;;;;17.85;3.25;;;;;;;22.37;60.71;99697.53;5078997;28;20040;-69
2021/09/13 04:20:28;;;;;;;5.90;2.83;;;;;;;22.41;60.84;99718.31;5088732;28;20044;-70
2021/09/13 04:22:55;;;;;;;9.00;3.80;;;;;;;22.36;61.01;99726.34;5071347;28;20110;-70
2021/09/13 04:25:22;;;;;;;5.88;2.70;;;;;;;22.37;60.88;99720.28;5093374;28;20081;-74
2021/09/13 04:27:49;;;;;;;6.05;3.28;;;;;;;22.37;61.08;99717.44;5089024;28;20076;-71
2021/09/13 04:30:16;;;;;;;7.30;3.15;;;;;;;22.35;61.18;99697.06;5083137;28;20128;-73
2021/09/13 04:32:43;;;;;;;5.20;3.13;;;;;;;22.50;61.08;99708.72;5090339;28;20044;-75
2021/09/13 04:35:10;;;;;;;5.45;3.10;;;;;;;22.51;60.76;99721.72;5089443;28;20083;-71
2021/09/13 04:37:37;;;;;;;7.13;3.95;;;;;;;22.48;60.68;99715.59;5093058;28;20131;-71
2021/09/13 04:40:04;;;;;;;6.10;2.38;;;;;;;22.46;60.93;99720.00;5086676;28;20075;-70
2021/09/13 04:42:31;;;;;;;7.40;3.05;;;;;;;22.44;60.91;99711.03;5078466;28;20076;-69
2021/09/13 04:44:57;;;;;;;4.93;2.55;;;;;;;22.45;60.80;99729.75;5088154;28;20076;-70
2021/09/13 04:47:24;;;;;;;10.98;3.35;;;;;;;22.18;61.19;99703.28;5086407;28;20048;-68
2021/09/13 04:49:51;;;;;;;4.47;2.40;;;;;;;22.19;61.86;99717.13;5091541;28;20076;-69
2021/09/13 04:52:18;;;;;;;7.03;2.80;;;;;;;22.21;61.85;99725.28;5084046;28;20386;-70
2021/09/13 04:54:45;;;;;;;6.40;2.42;;;;;;;22.21;61.76;99722.44;5082330;28;20138;-69
2021/09/13 04:57:12;;;;;;;6.20;2.90;;;;;;;22.21;61.68;99720.41;5088177;28;20052;-68
2021/09/13 04:59:38;;;;;;;6.85;2.90;;;;;;;22.20;61.54;99724.47;5087024;28;20075;-72
2021/09/13 05:02:05;;;;;;;5.13;2.60;;;;;;;22.13;61.76;99718.63;5095642;28;20071;-66
2021/09/13 05:04:32;;;;;;;5.15;2.60;;;;;;;22.08;62.00;99718.09;5079905;28;20083;-69
2021/09/13 05:06:59;;;;;;;6.32;2.85;;;;;;;21.97;62.34;99721.56;5091791;28;20143;-78
2021/09/13 05:09:26;;;;;;;6.35;2.67;;;;;;;21.88;62.70;99718.16;5080313;28;20075;-76
2021/09/13 05:11:53;;;;;;;8.38;3.00;;;;;;;21.79;63.13;99700.53;5087272;28;20052;-72
2021/09/13 05:14:20;;;;;;;6.75;2.78;;;;;;;21.73;63.59;99693.50;5073767;28;20068;-67
2021/09/13 05:16:47;;;;;;;8.57;2.90;;;;;;;21.76;63.50;99709.81;5072814;28;20044;-67
2021/09/13 05:19:14;;;;;;;5.28;2.50;;;;;;;21.60;63.56;99683.50;5078134;28;20067;-71
2021/09/13 05:21:41;;;;;;;7.30;2.47;;;;;;;21.58;64.09;99692.41;5080420;28;20073;-68
2021/09/13 05:24:08;;;;;;;5.32;2.83;;;;;;;21.59;64.30;99699.72;5080920;28;20238;-69
2021/09/13 05:26:35;;;;;;;6.25;2.80;;;;;;;21.58;64.32;99698.09;5079885;28;20045;-64
2021/09/13 05:29:02;;;;;;;3.78;2.50;;;;;;;21.58;64.49;99691.59;5078034;28;20150;-66
2021/09/13 05:31:29;;;;;;;5.20;2.65;;;;;;;21.65;64.13;99697.41;5077537;28;20106;-64
2021/09/13 05:33:56;;;;;;;7.47;2.67;;;;;;;21.62;64.35;99701.00;5091318;28;20052;-64
2021/09/13 05:36:22;;;;;;;4.78;3.03;;;;;;;21.57;64.43;99692.78;5082649;28;20048;-60
2021/09/13 05:38:49;;;;;;;5.25;2.60;;;;;;;21.60;64.27;99684.31;5085954;28;20285;-58
2021/09/13 05:41:16;;;;;;;6.95;3.10;;;;;;;21.52;64.46;99683.38;5093412;28;20044;-60
2021/09/13 05:43:43;;;;;;;6.05;2.38;;;;;;;21.51;64.46;99684.56;5085732;28;20120;-61
2021/09/13 05:46:10;;;;;;;7.75;2.80;;;;;;;21.51;64.77;99681.72;5082701;28;20123;-58
2021/09/13 05:48:37;;;;;;;4.00;2.17;;;;;;;21.70;64.69;99688.56;5089955;28;20044;-58
2021/09/13 05:51:04;;;;;;;4.30;2.45;;;;;;;21.91;64.72;99682.47;5081750;28;20155;-58
2021/09/13 05:53:31;;;;;;;10.13;2.60;;;;;;;22.26;64.07;99684.31;5086995;28;20549;-59
2021/09/13 05:55:58;;;;;;;4.47;2.08;;;;;;;22.26;63.46;99659.56;5068470;28;20169;-59
2021/09/13 05:58:24;;;;;;;5.85;2.08;;;;;;;22.48;63.51;99675.75;5083772;28;20079;-57
2021/09/13 06:00:51;;;;;;;10.13;2.45;;;;;;;22.71;62.75;99695.63;5076635;28;20497;-58
2021/09/13 06:03:18;;;;;;;11.82;2.38;;;;;;;22.50;62.78;99686.75;5072990;28;20044;-57
2021/09/13 06:05:46;;;;;;;4.18;2.10;;;;;;;22.47;62.80;99698.91;5075983;28;20039;-58
2021/09/13 06:08:13;;;;;;;2.45;1.50;;;;;;;22.41;62.70;99687.00;5082099;28;20127;-58
2021/09/13 06:10:39;;;;;;;8.18;2.33;;;;;;;22.55;62.69;99717.72;5082219;28;20135;-59
2021/09/13 06:13:11;;;;;;;7.07;1.92;;;;;;;22.71;62.30;99717.56;5069269;28;20074;-58
2021/09/13 06:15:41;;;;;;;4.50;2.10;;;;;;;22.78;61.87;99717.69;5083602;28;20060;-60
2021/09/13 06:18:08;;;;;;;6.43;2.20;;;;;;;22.91;61.51;99724.78;5079980;28;20123;-60
2021/09/13 06:20:35;;;;;;;11.18;3.50;;;;;;;22.90;61.22;99736.56;5085305;28;20489;-60
2021/09/13 06:23:02;;;;;;;5.15;2.75;;;;;;;22.87;61.63;99723.94;5086117;28;20467;-60
2021/09/13 06:25:29;;;;;;;7.72;2.00;;;;;;;22.94;61.45;99718.38;5080250;28;20562;-60
2021/09/13 06:27:55;;;;;;;2.70;1.73;;;;;;;23.06;60.97;99731.53;5077537;28;20115;-60
2021/09/13 06:30:22;;;;;;;6.15;2.17;;;;;;;23.10;60.83;99754.38;5076068;28;20498;-60
2021/09/13 06:32:49;;;;;;;3.95;2.03;;;;;;;22.77;62.56;99740.81;5080089;28;20082;-60
2021/09/13 06:35:16;;;;;;;6.35;1.90;;;;;;;22.11;64.58;99754.31;5088173;28;20076;-60
2021/09/13 06:37:43;;;;;;;2.10;1.70;;;;;;;21.32;68.21;99738.50;5079115;28;20113;-60
2021/09/13 06:40:10;;;;;;;2.65;1.40;;;;;;;20.50;72.29;99722.41;5082992;28;20127;-59
2021/09/13 06:42:38;;;;;;;1.50;1.25;;;;;;;19.95;75.26;99725.06;5084327;28;20071;-61
2021/09/13 06:45:10;;;;;;;3.97;1.90;;;;;;;19.75;75.59;99729.78;5080855;28;20102;-60
2021/09/13 06:47:44;;;;;;;1.63;1.25;;;;;;;19.74;76.23;99719.63;5079482;28;20048;-60
2021/09/13 06:50:16;;;;;;;1.95;1.27;;;;;;;19.70;76.81;99744.22;5079272;28;20051;-58
2021/09/13 06:52:44;;;;;;;5.40;2.13;;;;;;;19.68;77.30;99769.22;5085745;28;20089;-62
2021/09/13 06:55:11;;;;;;;2.05;1.65;;;;;;;19.68;77.88;99765.56;5086068;28;20456;-62
2021/09/13 06:57:39;;;;;;;3.13;1.95;;;;;;;19.57;78.32;99760.41;5082448;28;20072;-62
2021/09/13 07:00:12;;;;;;;2.13;1.08;;;;;;;19.46;78.76;99759.28;5082139;28;20475;-61
2021/09/13 07:02:41;;;;;;;6.60;2.28;;;;;;;19.36;79.65;99754.13;5083464;28;20086;-62
2021/09/13 07:05:09;;;;;;;1.17;1.00;;;;;;;19.38;80.36;99786.56;5082050;28;20068;-61
2021/09/13 07:07:41;;;;;;;2.15;1.67;;;;;;;19.39;79.57;99793.84;5076849;28;20044;-60
2021/09/13 07:10:09;;;;;;;2.88;2.03;;;;;;;19.56;79.24;99794.75;5082507;28;20082;-60
2021/09/13 07:12:37;;;;;;;7.05;3.15;;;;;;;19.44;79.54;99761.63;5083009;28;20051;-59
2021/09/13 07:15:05;;;;;;;5.80;1.40;;;;;;;19.68;79.79;99783.38;5078431;28;20048;-60
2021/09/13 07:17:33;;;;;;;3.67;2.40;;;;;;;19.76;79.64;99804.25;5075762;28;20060;-60
2021/09/13 07:20:00;;;;;;;3.20;1.92;;;;;;;19.96;79.26;99811.72;5092398;28;20280;-60
2021/09/13 07:22:27;;;;;;;4.25;2.40;;;;;;;20.16;78.65;99826.03;5091647;28;20056;-60
2021/09/13 07:24:53;;;;;;;4.35;1.92;;;;;;;20.40;77.51;99825.88;5083502;28;20064;-60
2021/09/13 07:27:20;;;;;;;3.28;2.22;;;;;;;20.44;77.15;99831.63;5090695;28;20135;-59
2021/09/13 07:29:47;;;;;;;3.10;1.35;;;;;;;20.52;77.09;99822.16;5091197;28;20066;-60
2021/09/13 07:32:14;;;;;;;5.90;2.70;;;;;;;20.54;76.84;99843.28;5073869;28;20142;-59
2021/09/13 07:34:41;;;;;;;2.17;1.38;;;;;;;20.50;76.72;99836.69;5092626;28;20130;-61
2021/09/13 07:37:08;;;;;;;5.50;1.52;;;;;;;20.28;76.98;99860.81;5087387;28;20504;-60
2021/09/13 07:39:35;;;;;;;3.72;1.70;;;;;;;20.02;78.01;99849.94;5086139;28;20214;-60
2021/09/13 07:42:02;;;;;;;6.97;2.47;;;;;;;19.88;78.59;99855.19;5078529;28;20127;-60
2021/09/13 07:44:29;;;;;;;6.15;1.40;;;;;;;19.74;78.80;99860.47;5073230;28;20136;-61
2021/09/13 07:46:56;;;;;;;3.22;1.88;;;;;;;19.66;79.43;99859.41;5085356;28;20135;-61
2021/09/13 07:49:23;;;;;;;4.63;2.03;;;;;;;19.57;79.65;99847.38;5089400;28;20131;-62
2021/09/13 07:51:50;;;;;;;7.25;2.55;;;;;;;19.72;79.71;99859.97;5086322;28;20508;-61
2021/09/13 07:54:17;;;;;;;1.88;1.60;;;;;;;19.83;79.37;99852.63;5084444;28;20171;-62
2021/09/13 07:56:44;;;;;;;4.93;2.22;;;;;;;20.09;78.28;99858.63;5080811;28;20534;-62
2021/09/13 07:59:10;;;;;;;2.90;2.20;;;;;;;20.02;78.10;99861.28;5084894;28;20127;-62
2021/09/13 08:01:37;;;;;;;5.53;2.40;;;;;;;19.90;78.50;99867.00;5081670;28;20491;-62
2021/09/13 08:04:09;;;;;;;3.58;2.15;;;;;;;19.98;78.38;99851.84;5085498;28;20047;-61
2021/09/13 08:06:37;;;;;;;8.75;2.42;;;;;;;20.35;77.87;99848.84;5087573;28;20150;-62
2021/09/13 08:09:07;;;;;;;2.95;2.08;;;;;;;20.38;77.13;99842.44;5088189;28;20101;-61
2021/09/13 08:11:34;;;;;;;3.63;1.88;;;;;;;20.57;76.55;99833.22;5083193;28;20134;-61
2021/09/13 08:14:01;;;;;;;4.97;1.95;;;;;;;20.91;76.12;99845.03;5085177;28;20040;-61
2021/09/13 08:16:28;;;;;;;4.35;2.83;;;;;;;21.01;75.83;99845.28;5079047;28;20396;-61
2021/09/13 08:18:57;;;;;;;19.45;8.35;;;;;;;20.83;75.18;99818.50;5085908;28;20048;-62
2021/09/13 08:21:26;;;;;;;8.67;6.10;;;;;;;20.80;75.41;99780.31;5081035;28;20078;-62
2021/09/13 08:23:54;;;;;;;4.18;2.90;;;;;;;20.87;75.25;99787.38;5077755;28;20276;-62
2021/09/13 08:26:21;;;;;;;3.10;2.15;;;;;;;20.76;75.59;99792.78;5087075;28;20099;-62
2021/09/13 08:28:48;;;;;;;8.40;3.30;;;;;;;20.74;76.24;99809.34;5086612;28;20082;-62
2021/09/13 08:31:15;;;;;;;1.55;1.45;;;;;;;20.57;76.77;99808.50;5082705;28;20131;-62
2021/09/13 08:33:43;;;;;;;4.53;3.00;;;;;;;20.48;77.24;99802.19;5075497;28;20052;-61
2021/09/13 08:36:09;;;;;;;4.07;2.13;;;;;;;20.58;76.85;99786.63;5094318;28;20055;-61
2021/09/13 08:38:36;;;;;;;3.47;1.92;;;;;;;20.57;76.77;99773.66;5092387;28;20071;-61
2021/09/13 08:41:04;;;;;;;3.22;1.67;;;;;;;20.69;76.25;99755.72;5092960;28;20206;-61
2021/09/13 08:43:31;;;;;;;2.28;1.67;;;;;;;20.68;75.77;99754.06;5084066;28;20044;-61
2021/09/13 08:46:10;;;;;;;3.60;1.65;;;;;;;20.86;75.60;99752.50;5085801;28;20468;-61
2021/09/13 08:53:52;;;;;;;2.03;0.85;;;;;;;21.00;74.74;99729.28;5085617;28;20089;-62
2021/09/13 08:56:24;;;;;;;4.00;1.52;;;;;;;21.11;74.55;99729.53;5085266;28;20140;-61
2021/09/13 08:58:51;;;;;;;2.03;1.33;;;;;;;21.33;74.43;99725.94;5083968;28;20123;-61
2021/09/13 09:01:17;;;;;;;1.65;1.13;;;;;;;21.48;74.17;99744.97;5086475;28;20070;-61
2021/09/13 09:03:45;;;;;;;1.20;1.00;;;;;;;21.79;73.62;99748.03;5084017;28;20048;-62
2021/09/13 09:06:38;;;;;;;3.35;2.00;;;;;;;22.27;73.67;99763.59;5084736;28;20131;-61
2021/09/13 09:09:07;;;;;;;4.07;1.70;;;;;;;22.65;72.82;99765.44;5082371;28;20092;-61
2021/09/13 09:12:00;;;;;;;3.35;1.58;;;;;;;22.84;71.74;99775.94;5077315;28;20135;-62
2021/09/13 09:14:31;;;;;;;1.42;1.10;;;;;;;23.12;71.46;99808.94;5079745;28;20492;-62
2021/09/13 09:17:03;;;;;;;3.05;1.10;;;;;;;23.23;71.24;99824.16;5086529;28;20040;-65
2021/09/13 09:19:31;;;;;;;2.97;1.40;;;;;;;23.32;71.90;99801.09;5092025;28;20091;-62
2021/09/13 09:22:17;;;;;;;1.73;1.13;;;;;;;23.25;71.23;99806.66;5086601;28;20493;-61
2021/09/13 09:24:45;;;;;;;2.83;1.13;;;;;;;23.34;70.37;99816.56;5088415;28;20127;-61
2021/09/13 09:27:13;;;;;;;1.52;1.00;;;;;;;23.47;70.63;99817.16;5084273;28;20048;-61
2021/09/13 09:29:39;;;;;;;2.67;1.70;;;;;;;23.47;70.24;99807.81;5085982;28;20512;-61
2021/09/13 09:32:06;;;;;;;2.75;1.45;;;;;;;23.49;70.37;99823.31;5084425;28;20076;-61
2021/09/13 09:34:35;;;;;;;2.42;1.20;;;;;;;23.59;68.88;99816.09;5090337;28;20090;-62
2021/09/13 09:37:09;;;;;;;4.25;1.40;;;;;;;23.77;69.33;99811.50;5081552;28;20123;-62
2021/09/13 09:39:39;;;;;;;4.53;1.55;;;;;;;24.07;69.17;99810.63;5083644;28;20087;-61
2021/09/13 09:42:07;;;;;;;;;;;;;;;24.28;70.24;99810.84;5085958;28;20048;-62
2021/09/13 09:44:34;;;;;;;3.20;1.77;;;;;;;24.46;69.74;99804.53;5085288;28;20026;-64
2021/09/13 09:47:07;;;;;;;2.30;1.25;;;;;;;24.56;68.90;99800.97;5089434;28;20079;-61
2021/09/13 09:49:51;;;;;;;5.20;1.63;;;;;;;24.42;69.29;99790.22;5084470;28;20123;-62
2021/09/13 09:52:27;;;;;;;5.38;1.98;;;;;;;24.26;69.44;99815.31;5074694;28;20131;-60
2021/09/13 09:55:20;;;;;;;1.77;1.20;;;;;;;24.01;69.84;99809.34;5085517;28;20544;-61
2021/09/13 09:58:10;;;;;;;5.53;2.35;;;;;;;23.86;68.94;99811.16;5081607;28;20048;-60
2021/09/13 10:00:38;;;;;;;3.20;1.60;;;;;;;23.75;69.03;99805.34;5086105;28;20068;-62
2021/09/13 10:03:06;;;;;;;4.53;1.85;;;;;;;23.81;69.48;99800.13;5084418;28;20044;-60
2021/09/13 10:05:35;;;;;;;3.15;1.88;;;;;;;24.01;69.03;99817.88;5071287;28;20049;-61
2021/09/13 10:08:04;;;;;;;5.60;1.98;;;;;;;24.14;68.91;99810.72;5083513;28;20595;-61
2021/09/13 10:10:31;;;;;;;3.53;2.33;;;;;;;24.24;68.92;99824.28;5082853;28;20519;-61
2021/09/13 10:13:00;;;;;;;3.67;1.80;;;;;;;24.13;68.39;99812.72;5082357;28;20095;-61
2021/09/13 10:15:28;;;;;;;6.60;2.90;;;;;;;24.20;68.57;99829.09;5087141;28;20072;-61
2021/09/13 10:17:59;;;;;;;8.95;2.45;;;;;;;24.33;68.17;99833.31;5076768;28;20051;-60
2021/09/13 10:20:26;;;;;;;3.20;2.22;;;;;;;24.43;67.99;99845.28;5083858;28;20462;-61
2021/09/13 10:22:54;;;;;;;2.17;1.20;;;;;;;24.49;67.52;99838.81;5087460;28;20076;-61
2021/09/13 10:25:27;;;;;;;4.38;1.50;;;;;;;24.43;66.86;99845.28;5085507;28;20099;-60
2021/09/13 10:28:03;;;;;;;7.55;2.15;;;;;;;24.30;66.46;99825.53;5077589;28;20124;-61
2021/09/13 10:30:30;;;;;;;4.00;1.60;;;;;;;24.35;65.60;99839.47;5081208;28;20135;-61
2021/09/13 10:33:12;;;;;;;2.10;1.35;;;;;;;24.33;65.92;99833.31;5079522;28;20406;-61
2021/09/13 10:36:01;;;;;;;3.42;1.60;;;;;;;24.49;65.68;99829.44;5079547;28;20543;-62
2021/09/13 10:38:43;;;;;;;4.30;1.45;;;;;;;24.61;66.65;99814.84;5083521;28;20140;-60
2021/09/13 10:41:31;;;;;;;2.60;1.33;;;;;;;24.71;65.85;99807.59;5080201;28;20075;-61
2021/09/13 10:44:07;;;;;;;5.35;1.92;;;;;;;24.64;66.35;99808.38;5107191;28;20046;-60
2021/09/13 10:47:04;;;;;;;7.07;3.13;;;;;;;24.53;66.28;99799.72;5099610;28;20055;-60
2021/09/13 10:49:32;;;;;;;6.75;2.50;;;;;;;24.50;65.38;99800.50;5106063;28;20101;-60
2021/09/13 10:52:28;;;;;;;8.02;2.65;;;;;;;24.47;67.02;99806.16;5089188;28;20087;-61
2021/09/13 10:55:17;;;;;;;6.45;2.85;;;;;;;24.48;67.06;99802.09;5099044;28;20063;-60
2021/09/13 10:58:17;;;;;;;;;;;;;;;24.54;68.67;99826.22;5107599;28;20441;-61
2021/09/13 11:00:43;;;;;;;5.63;3.00;;;;;;;24.65;67.34;99826.31;5038223;28;20034;-61
2021/09/13 11:03:29;;;;;;;6.68;2.72;;;;;;;24.69;67.71;99827.19;5104748;28;20549;-61
2021/09/13 11:06:02;;;;;;;4.88;2.40;;;;;;;24.75;66.46;99835.00;5108897;28;20463;-61
2021/09/13 11:08:30;;;;;;;2.95;1.33;;;;;;;24.83;66.06;99839.53;5103861;28;20060;-61
2021/09/13 11:10:58;;;;;;;2.70;1.40;;;;;;;24.90;65.90;99835.94;5091583;28;20117;-60
2021/09/13 11:13:25;;;;;;;4.60;2.25;;;;;;;24.99;65.57;99844.16;5094719;28;20441;-61
2021/09/13 11:15:52;;;;;;;3.88;2.30;;;;;;;25.07;65.57;99837.28;5101260;28;20067;-60
2021/09/13 11:18:38;;;;;;;2.25;1.15;;;;;;;25.17;67.07;99824.34;5109912;28;20047;-60
2021/09/13 11:21:31;;;;;;;2.78;1.60;;;;;;;25.22;67.06;99816.19;5104290;28;20122;-61
2021/09/13 11:24:11;;;;;;;3.03;1.75;;;;;;;25.43;65.69;99823.25;5097279;28;20064;-61
2021/09/13 11:27:05;;;;;;;2.55;1.30;;;;;;;25.54;66.99;99809.88;5099124;28;20067;-60
2021/09/13 11:29:40;;;;;;;3.15;1.38;;;;;;;25.71;65.99;99817.72;5103195;28;20070;-61
2021/09/13 11:32:17;;;;;;;6.75;1.85;;;;;;;25.79;64.91;99820.59;5100271;28;20043;-61
2021/09/13 11:34:50;;;;;;;2.35;1.50;;;;;;;25.80;65.21;99810.81;5092327;28;20075;-61
2021/09/13 11:37:23;;;;;;;4.70;1.73;;;;;;;25.90;65.06;99804.34;5111642;28;20052;-61
2021/09/13 11:40:10;;;;;;;6.43;3.20;;;;;;;26.01;65.12;99808.03;5096627;28;20054;-61
2021/09/13 11:42:37;;;;;;;3.90;1.92;;;;;;;26.13;64.37;99809.72;5093875;28;20109;-61
2021/09/13 11:45:07;;;;;;;4.75;2.17;;;;;;;26.19;64.27;99806.06;5099388;28;20446;-61
2021/09/13 11:47:51;;;;;;;4.03;2.22;;;;;;;26.24;64.20;99807.72;5105889;28;20037;-60
2021/09/13 11:50:18;;;;;;;4.47;2.55;;;;;;;26.33;64.21;99807.34;5092457;28;20215;-60
2021/09/13 11:52:45;;;;;;;5.22;2.55;;;;;;;26.40;63.71;99810.19;5109149;28;20079;-61